sensor_id;sensor_type;location;lat;lon;timestamp;temperature;humidity
67175;DHT22;54110;45.778;4.826;2022-07-22T00:00:36;31.60;39.30
67175;DHT22;54110;45.778;4.826;2022-07-22T00:03:03;31.60;39.30
67175;DHT22;54110;45.778;4.826;2022-07-22T00:05:28;31.60;39.30
67175;DHT22;54110;45.778;4.826;2022-07-22T00:07:54;31.60;39.30
67175;DHT22;54110;45.778;4.826;2022-07-22T00:10:20;31.60;39.30
67175;DHT22;54110;45.778;4.826;2022-07-22T00:12:47;31.60;39.30
67175;DHT22;54110;45.778;4.826;2022-07-22T00:15:13;31.60;39.20
67175;DHT22;54110;45.778;4.826;2022-07-22T00:17:39;31.50;39.10
67175;DHT22;54110;45.778;4.826;2022-07-22T00:20:06;31.60;39.30
67175;DHT22;54110;45.778;4.826;2022-07-22T00:22:32;31.50;39.20
67175;DHT22;54110;45.778;4.826;2022-07-22T00:24:58;31.50;39.20
67175;DHT22;54110;45.778;4.826;2022-07-22T00:27:24;31.60;39.30
67175;DHT22;54110;45.778;4.826;2022-07-22T00:29:51;31.50;39.00
67175;DHT22;54110;45.778;4.826;2022-07-22T00:32:17;31.50;39.00
67175;DHT22;54110;45.778;4.826;2022-07-22T00:34:43;31.50;39.00
67175;DHT22;54110;45.778;4.826;2022-07-22T00:37:08;31.50;38.90
67175;DHT22;54110;45.778;4.826;2022-07-22T00:39:34;31.50;38.80
67175;DHT22;54110;45.778;4.826;2022-07-22T00:42:00;31.50;38.80
67175;DHT22;54110;45.778;4.826;2022-07-22T00:44:26;31.50;38.80
67175;DHT22;54110;45.778;4.826;2022-07-22T00:46:53;31.50;38.80
67175;DHT22;54110;45.778;4.826;2022-07-22T00:49:19;31.50;38.70
67175;DHT22;54110;45.778;4.826;2022-07-22T00:51:46;31.50;38.70
67175;DHT22;54110;45.778;4.826;2022-07-22T00:54:12;31.50;38.70
67175;DHT22;54110;45.778;4.826;2022-07-22T00:56:38;31.50;38.70
67175;DHT22;54110;45.778;4.826;2022-07-22T00:59:07;31.50;38.70
67175;DHT22;54110;45.778;4.826;2022-07-22T01:01:34;31.50;38.70
67175;DHT22;54110;45.778;4.826;2022-07-22T01:04:01;31.50;38.70
67175;DHT22;54110;45.778;4.826;2022-07-22T01:06:27;31.50;38.70
67175;DHT22;54110;45.778;4.826;2022-07-22T01:08:54;31.40;38.70
67175;DHT22;54110;45.778;4.826;2022-07-22T01:11:20;31.50;38.70
67175;DHT22;54110;45.778;4.826;2022-07-22T01:13:47;31.40;38.70
67175;DHT22;54110;45.778;4.826;2022-07-22T01:16:15;31.40;38.70
67175;DHT22;54110;45.778;4.826;2022-07-22T01:18:41;31.40;38.70
67175;DHT22;54110;45.778;4.826;2022-07-22T01:21:09;31.40;38.80
67175;DHT22;54110;45.778;4.826;2022-07-22T01:23:35;31.40;38.70
67175;DHT22;54110;45.778;4.826;2022-07-22T01:26:02;31.40;38.80
67175;DHT22;54110;45.778;4.826;2022-07-22T01:28:28;31.40;38.80
67175;DHT22;54110;45.778;4.826;2022-07-22T01:30:54;31.30;38.80
67175;DHT22;54110;45.778;4.826;2022-07-22T01:33:20;31.30;38.80
67175;DHT22;54110;45.778;4.826;2022-07-22T01:35:46;31.40;38.80
67175;DHT22;54110;45.778;4.826;2022-07-22T01:38:14;31.30;38.90
67175;DHT22;54110;45.778;4.826;2022-07-22T01:40:41;31.30;39.00
67175;DHT22;54110;45.778;4.826;2022-07-22T01:43:07;31.30;39.10
67175;DHT22;54110;45.778;4.826;2022-07-22T01:45:33;31.40;39.80
67175;DHT22;54110;45.778;4.826;2022-07-22T01:47:59;31.40;39.20
67175;DHT22;54110;45.778;4.826;2022-07-22T01:50:25;31.30;39.10
67175;DHT22;54110;45.778;4.826;2022-07-22T01:52:50;31.30;39.10
67175;DHT22;54110;45.778;4.826;2022-07-22T01:55:18;31.30;39.10
67175;DHT22;54110;45.778;4.826;2022-07-22T01:57:44;31.30;39.10
67175;DHT22;54110;45.778;4.826;2022-07-22T02:00:11;31.30;39.10
67175;DHT22;54110;45.778;4.826;2022-07-22T02:02:37;31.30;39.40
67175;DHT22;54110;45.778;4.826;2022-07-22T02:05:06;31.30;39.40
67175;DHT22;54110;45.778;4.826;2022-07-22T02:07:32;31.40;39.50
67175;DHT22;54110;45.778;4.826;2022-07-22T02:09:58;31.30;39.60
67175;DHT22;54110;45.778;4.826;2022-07-22T02:12:25;31.30;39.70
67175;DHT22;54110;45.778;4.826;2022-07-22T02:14:51;31.40;39.80
67175;DHT22;54110;45.778;4.826;2022-07-22T02:17:17;31.30;39.80
67175;DHT22;54110;45.778;4.826;2022-07-22T02:19:43;31.30;39.80
67175;DHT22;54110;45.778;4.826;2022-07-22T02:22:09;31.30;39.90
67175;DHT22;54110;45.778;4.826;2022-07-22T02:24:35;31.30;39.80
67175;DHT22;54110;45.778;4.826;2022-07-22T02:27:00;31.30;40.00
67175;DHT22;54110;45.778;4.826;2022-07-22T02:29:28;31.30;39.90
67175;DHT22;54110;45.778;4.826;2022-07-22T02:31:53;31.30;40.00
67175;DHT22;54110;45.778;4.826;2022-07-22T02:34:19;31.30;40.00
67175;DHT22;54110;45.778;4.826;2022-07-22T02:36:45;31.30;40.10
67175;DHT22;54110;45.778;4.826;2022-07-22T02:39:11;31.30;40.10
67175;DHT22;54110;45.778;4.826;2022-07-22T02:41:37;31.30;40.20
67175;DHT22;54110;45.778;4.826;2022-07-22T02:44:03;31.30;40.20
67175;DHT22;54110;45.778;4.826;2022-07-22T02:46:30;31.20;40.10
67175;DHT22;54110;45.778;4.826;2022-07-22T02:48:57;31.30;40.20
67175;DHT22;54110;45.778;4.826;2022-07-22T02:51:23;31.20;40.20
67175;DHT22;54110;45.778;4.826;2022-07-22T02:53:49;31.20;40.20
67175;DHT22;54110;45.778;4.826;2022-07-22T02:56:15;31.20;40.10
67175;DHT22;54110;45.778;4.826;2022-07-22T02:58:40;31.30;40.20
67175;DHT22;54110;45.778;4.826;2022-07-22T03:01:06;31.20;40.10
67175;DHT22;54110;45.778;4.826;2022-07-22T03:03:34;31.20;40.20
67175;DHT22;54110;45.778;4.826;2022-07-22T03:05:59;31.20;40.20
67175;DHT22;54110;45.778;4.826;2022-07-22T03:08:25;31.20;40.20
67175;DHT22;54110;45.778;4.826;2022-07-22T03:10:52;31.20;40.30
67175;DHT22;54110;45.778;4.826;2022-07-22T03:13:17;31.20;40.30
67175;DHT22;54110;45.778;4.826;2022-07-22T03:15:43;31.20;40.70
67175;DHT22;54110;45.778;4.826;2022-07-22T03:18:09;31.20;40.50
67175;DHT22;54110;45.778;4.826;2022-07-22T03:20:36;31.20;40.50
67175;DHT22;54110;45.778;4.826;2022-07-22T03:23:02;31.20;40.50
67175;DHT22;54110;45.778;4.826;2022-07-22T03:25:28;31.20;40.50
67175;DHT22;54110;45.778;4.826;2022-07-22T03:27:54;31.20;40.50
67175;DHT22;54110;45.778;4.826;2022-07-22T03:30:19;31.20;40.40
67175;DHT22;54110;45.778;4.826;2022-07-22T03:32:45;31.20;40.40
67175;DHT22;54110;45.778;4.826;2022-07-22T03:35:11;31.20;40.40
67175;DHT22;54110;45.778;4.826;2022-07-22T03:37:38;31.10;40.40
67175;DHT22;54110;45.778;4.826;2022-07-22T03:40:05;31.20;40.40
67175;DHT22;54110;45.778;4.826;2022-07-22T03:42:31;31.10;40.40
67175;DHT22;54110;45.778;4.826;2022-07-22T03:44:56;31.20;40.50
67175;DHT22;54110;45.778;4.826;2022-07-22T03:47:22;31.10;40.50
67175;DHT22;54110;45.778;4.826;2022-07-22T03:49:49;31.10;40.50
67175;DHT22;54110;45.778;4.826;2022-07-22T03:52:15;31.10;40.50
67175;DHT22;54110;45.778;4.826;2022-07-22T03:54:43;31.10;40.40
67175;DHT22;54110;45.778;4.826;2022-07-22T03:57:09;31.10;40.40
67175;DHT22;54110;45.778;4.826;2022-07-22T03:59:35;31.10;40.50
67175;DHT22;54110;45.778;4.826;2022-07-22T04:02:00;31.00;40.40
67175;DHT22;54110;45.778;4.826;2022-07-22T04:04:26;31.00;40.50
67175;DHT22;54110;45.778;4.826;2022-07-22T04:06:52;31.10;40.60
67175;DHT22;54110;45.778;4.826;2022-07-22T04:09:18;31.00;40.50
67175;DHT22;54110;45.778;4.826;2022-07-22T04:11:45;31.00;40.60
67175;DHT22;54110;45.778;4.826;2022-07-22T04:14:11;31.00;40.70
67175;DHT22;54110;45.778;4.826;2022-07-22T04:16:37;31.10;40.80
67175;DHT22;54110;45.778;4.826;2022-07-22T04:19:03;31.00;40.70
67175;DHT22;54110;45.778;4.826;2022-07-22T04:21:29;31.00;40.70
67175;DHT22;54110;45.778;4.826;2022-07-22T04:23:55;31.00;40.70
67175;DHT22;54110;45.778;4.826;2022-07-22T04:26:21;31.10;40.90
67175;DHT22;54110;45.778;4.826;2022-07-22T04:28:48;31.10;40.90
67175;DHT22;54110;45.778;4.826;2022-07-22T04:31:14;31.10;40.90
67175;DHT22;54110;45.778;4.826;2022-07-22T04:33:40;31.10;40.90
67175;DHT22;54110;45.778;4.826;2022-07-22T04:36:06;31.10;40.90
67175;DHT22;54110;45.778;4.826;2022-07-22T04:38:32;31.10;40.90
67175;DHT22;54110;45.778;4.826;2022-07-22T04:40:58;31.10;40.90
67175;DHT22;54110;45.778;4.826;2022-07-22T04:43:23;31.10;40.90
67175;DHT22;54110;45.778;4.826;2022-07-22T04:45:51;31.10;40.90
67175;DHT22;54110;45.778;4.826;2022-07-22T04:48:17;31.10;41.30
67175;DHT22;54110;45.778;4.826;2022-07-22T04:50:43;31.10;41.30
67175;DHT22;54110;45.778;4.826;2022-07-22T04:53:09;31.20;41.50
67175;DHT22;54110;45.778;4.826;2022-07-22T04:55:35;31.10;41.40
67175;DHT22;54110;45.778;4.826;2022-07-22T04:58:01;31.10;41.30
67175;DHT22;54110;45.778;4.826;2022-07-22T05:00:26;31.20;41.50
67175;DHT22;54110;45.778;4.826;2022-07-22T05:02:54;31.10;41.50
67175;DHT22;54110;45.778;4.826;2022-07-22T05:05:19;31.20;41.50
67175;DHT22;54110;45.778;4.826;2022-07-22T05:07:45;31.20;41.80
67175;DHT22;54110;45.778;4.826;2022-07-22T05:10:11;31.20;41.70
67175;DHT22;54110;45.778;4.826;2022-07-22T05:12:37;31.20;41.60
67175;DHT22;54110;45.778;4.826;2022-07-22T05:15:03;31.20;41.60
67175;DHT22;54110;45.778;4.826;2022-07-22T05:17:29;31.20;41.50
67175;DHT22;54110;45.778;4.826;2022-07-22T05:19:56;31.20;41.50
67175;DHT22;54110;45.778;4.826;2022-07-22T05:22:22;31.20;41.80
67175;DHT22;54110;45.778;4.826;2022-07-22T05:24:48;31.20;42.80
67175;DHT22;54110;45.778;4.826;2022-07-22T05:27:13;31.10;42.20
67175;DHT22;54110;45.778;4.826;2022-07-22T05:29:39;31.20;41.90
67175;DHT22;54110;45.778;4.826;2022-07-22T05:32:05;31.20;41.80
67175;DHT22;54110;45.778;4.826;2022-07-22T05:34:31;31.20;41.70
67175;DHT22;54110;45.778;4.826;2022-07-22T05:36:58;31.20;41.80
67175;DHT22;54110;45.778;4.826;2022-07-22T05:39:24;31.20;41.90
67175;DHT22;54110;45.778;4.826;2022-07-22T05:41:49;31.20;42.10
67175;DHT22;54110;45.778;4.826;2022-07-22T05:44:15;31.30;42.10
67175;DHT22;54110;45.778;4.826;2022-07-22T05:46:41;31.30;42.40
67175;DHT22;54110;45.778;4.826;2022-07-22T05:49:07;31.30;42.30
67175;DHT22;54110;45.778;4.826;2022-07-22T05:51:33;31.30;42.50
67175;DHT22;54110;45.778;4.826;2022-07-22T05:54:00;31.30;42.60
67175;DHT22;54110;45.778;4.826;2022-07-22T05:56:25;31.30;42.70
67175;DHT22;54110;45.778;4.826;2022-07-22T05:58:51;31.40;42.90
67175;DHT22;54110;45.778;4.826;2022-07-22T06:01:17;31.30;42.80
67175;DHT22;54110;45.778;4.826;2022-07-22T06:03:43;31.30;42.90
67175;DHT22;54110;45.778;4.826;2022-07-22T06:06:08;31.30;42.90
67175;DHT22;54110;45.778;4.826;2022-07-22T06:08:35;31.30;43.50
67175;DHT22;54110;45.778;4.826;2022-07-22T06:11:02;31.30;43.00
67175;DHT22;54110;45.778;4.826;2022-07-22T06:13:28;31.40;43.10
67175;DHT22;54110;45.778;4.826;2022-07-22T06:15:54;31.40;43.10
67175;DHT22;54110;45.778;4.826;2022-07-22T06:18:19;31.40;43.20
67175;DHT22;54110;45.778;4.826;2022-07-22T06:20:45;31.40;43.10
67175;DHT22;54110;45.778;4.826;2022-07-22T06:23:11;31.40;43.10
67175;DHT22;54110;45.778;4.826;2022-07-22T06:25:37;31.40;43.20
67175;DHT22;54110;45.778;4.826;2022-07-22T06:28:04;31.40;43.10
67175;DHT22;54110;45.778;4.826;2022-07-22T06:30:30;31.40;43.10
67175;DHT22;54110;45.778;4.826;2022-07-22T06:32:56;31.40;43.10
67175;DHT22;54110;45.778;4.826;2022-07-22T06:35:22;31.40;43.10
67175;DHT22;54110;45.778;4.826;2022-07-22T06:37:48;31.50;43.20
67175;DHT22;54110;45.778;4.826;2022-07-22T06:40:13;31.50;43.20
67175;DHT22;54110;45.778;4.826;2022-07-22T06:42:39;31.40;43.10
67175;DHT22;54110;45.778;4.826;2022-07-22T06:45:07;31.40;43.10
67175;DHT22;54110;45.778;4.826;2022-07-22T06:47:33;31.50;43.20
67175;DHT22;54110;45.778;4.826;2022-07-22T06:49:59;31.50;43.20
67175;DHT22;54110;45.778;4.826;2022-07-22T06:52:24;31.50;43.20
67175;DHT22;54110;45.778;4.826;2022-07-22T06:54:51;31.50;43.20
67175;DHT22;54110;45.778;4.826;2022-07-22T06:57:17;31.50;43.20
67175;DHT22;54110;45.778;4.826;2022-07-22T06:59:43;31.50;43.20
67175;DHT22;54110;45.778;4.826;2022-07-22T07:02:10;31.50;43.20
67175;DHT22;54110;45.778;4.826;2022-07-22T07:04:35;31.50;43.20
67175;DHT22;54110;45.778;4.826;2022-07-22T07:07:01;31.50;43.20
67175;DHT22;54110;45.778;4.826;2022-07-22T07:09:27;31.50;43.20
67175;DHT22;54110;45.778;4.826;2022-07-22T07:11:53;31.50;43.20
67175;DHT22;54110;45.778;4.826;2022-07-22T07:14:18;31.50;43.20
67175;DHT22;54110;45.778;4.826;2022-07-22T07:16:44;31.50;43.20
67175;DHT22;54110;45.778;4.826;2022-07-22T07:19:11;31.50;43.20
67175;DHT22;54110;45.778;4.826;2022-07-22T07:21:37;31.50;43.20
67175;DHT22;54110;45.778;4.826;2022-07-22T07:24:03;31.50;43.20
67175;DHT22;54110;45.778;4.826;2022-07-22T07:26:29;31.50;43.20
67175;DHT22;54110;45.778;4.826;2022-07-22T07:28:54;31.50;43.20
67175;DHT22;54110;45.778;4.826;2022-07-22T07:31:20;31.50;43.30
67175;DHT22;54110;45.778;4.826;2022-07-22T07:33:46;31.50;43.20
67175;DHT22;54110;45.778;4.826;2022-07-22T07:36:13;31.50;43.20
67175;DHT22;54110;45.778;4.826;2022-07-22T07:38:39;31.50;43.30
67175;DHT22;54110;45.778;4.826;2022-07-22T07:41:05;31.50;43.30
67175;DHT22;54110;45.778;4.826;2022-07-22T07:43:30;31.50;43.30
67175;DHT22;54110;45.778;4.826;2022-07-22T07:45:56;31.50;43.30
67175;DHT22;54110;45.778;4.826;2022-07-22T07:48:22;31.50;43.30
67175;DHT22;54110;45.778;4.826;2022-07-22T07:50:48;31.50;43.30
67175;DHT22;54110;45.778;4.826;2022-07-22T07:53:15;31.50;43.30
67175;DHT22;54110;45.778;4.826;2022-07-22T07:55:41;31.50;43.30
67175;DHT22;54110;45.778;4.826;2022-07-22T07:58:07;31.50;43.30
67175;DHT22;54110;45.778;4.826;2022-07-22T08:00:33;31.50;43.30
67175;DHT22;54110;45.778;4.826;2022-07-22T08:02:59;31.50;43.30
67175;DHT22;54110;45.778;4.826;2022-07-22T08:05:25;31.50;43.40
67175;DHT22;54110;45.778;4.826;2022-07-22T08:07:51;31.50;43.40
67175;DHT22;54110;45.778;4.826;2022-07-22T08:10:19;31.50;43.40
67175;DHT22;54110;45.778;4.826;2022-07-22T08:12:45;31.50;43.40
67175;DHT22;54110;45.778;4.826;2022-07-22T08:15:11;31.50;43.40
67175;DHT22;54110;45.778;4.826;2022-07-22T08:17:37;31.60;43.50
67175;DHT22;54110;45.778;4.826;2022-07-22T08:20:03;31.50;43.40
67175;DHT22;54110;45.778;4.826;2022-07-22T08:22:30;31.50;43.50
67175;DHT22;54110;45.778;4.826;2022-07-22T08:24:56;31.50;43.50
67175;DHT22;54110;45.778;4.826;2022-07-22T08:27:24;31.60;43.50
67175;DHT22;54110;45.778;4.826;2022-07-22T08:29:50;31.50;43.40
67175;DHT22;54110;45.778;4.826;2022-07-22T08:32:15;31.60;43.50
67175;DHT22;54110;45.778;4.826;2022-07-22T08:34:41;31.60;43.60
67175;DHT22;54110;45.778;4.826;2022-07-22T08:37:07;31.50;43.50
67175;DHT22;54110;45.778;4.826;2022-07-22T08:39:33;31.60;43.60
67175;DHT22;54110;45.778;4.826;2022-07-22T08:41:58;31.60;43.60
67175;DHT22;54110;45.778;4.826;2022-07-22T08:44:29;31.60;43.60
67175;DHT22;54110;45.778;4.826;2022-07-22T08:46:55;31.60;43.60
67175;DHT22;54110;45.778;4.826;2022-07-22T08:49:21;31.60;43.60
67175;DHT22;54110;45.778;4.826;2022-07-22T08:51:47;31.50;43.50
67175;DHT22;54110;45.778;4.826;2022-07-22T08:54:12;31.50;44.10
67175;DHT22;54110;45.778;4.826;2022-07-22T08:56:38;31.60;43.60
67175;DHT22;54110;45.778;4.826;2022-07-22T08:59:04;31.60;43.60
67175;DHT22;54110;45.778;4.826;2022-07-22T09:01:31;31.60;43.60
67175;DHT22;54110;45.778;4.826;2022-07-22T09:03:57;31.60;43.60
67175;DHT22;54110;45.778;4.826;2022-07-22T09:06:26;31.60;43.60
67175;DHT22;54110;45.778;4.826;2022-07-22T09:08:53;31.60;43.60
67175;DHT22;54110;45.778;4.826;2022-07-22T09:11:21;31.60;43.70
67175;DHT22;54110;45.778;4.826;2022-07-22T09:13:48;31.60;43.70
67175;DHT22;54110;45.778;4.826;2022-07-22T09:16:14;31.60;43.70
67175;DHT22;54110;45.778;4.826;2022-07-22T09:18:50;31.60;43.70
67175;DHT22;54110;45.778;4.826;2022-07-22T09:21:17;31.60;43.60
67175;DHT22;54110;45.778;4.826;2022-07-22T09:23:42;31.50;43.60
67175;DHT22;54110;45.778;4.826;2022-07-22T09:26:08;31.60;43.70
67175;DHT22;54110;45.778;4.826;2022-07-22T09:28:34;31.60;43.70
67175;DHT22;54110;45.778;4.826;2022-07-22T09:31:00;31.60;43.70
67175;DHT22;54110;45.778;4.826;2022-07-22T09:33:26;31.60;43.70
67175;DHT22;54110;45.778;4.826;2022-07-22T09:36:01;31.60;43.70
67175;DHT22;54110;45.778;4.826;2022-07-22T09:38:28;31.60;43.70
67175;DHT22;54110;45.778;4.826;2022-07-22T09:40:54;31.50;43.90
67175;DHT22;54110;45.778;4.826;2022-07-22T09:43:20;31.40;43.90
67175;DHT22;54110;45.778;4.826;2022-07-22T09:45:48;31.50;43.90
67175;DHT22;54110;45.778;4.826;2022-07-22T09:48:15;31.50;43.90
67175;DHT22;54110;45.778;4.826;2022-07-22T09:50:42;31.50;43.90
67175;DHT22;54110;45.778;4.826;2022-07-22T09:53:09;31.50;43.80
67175;DHT22;54110;45.778;4.826;2022-07-22T09:55:38;31.50;43.80
67175;DHT22;54110;45.778;4.826;2022-07-22T09:58:04;31.60;43.80
67175;DHT22;54110;45.778;4.826;2022-07-22T10:00:30;31.60;43.90
67175;DHT22;54110;45.778;4.826;2022-07-22T10:02:58;31.60;43.90
67175;DHT22;54110;45.778;4.826;2022-07-22T10:05:25;31.60;43.90
67175;DHT22;54110;45.778;4.826;2022-07-22T10:07:52;31.60;43.90
67175;DHT22;54110;45.778;4.826;2022-07-22T10:10:21;31.60;43.90
67175;DHT22;54110;45.778;4.826;2022-07-22T10:12:48;31.60;43.90
67175;DHT22;54110;45.778;4.826;2022-07-22T10:15:15;31.60;44.00
67175;DHT22;54110;45.778;4.826;2022-07-22T10:17:43;31.60;43.90
67175;DHT22;54110;45.778;4.826;2022-07-22T10:20:10;31.70;44.00
67175;DHT22;54110;45.778;4.826;2022-07-22T10:22:50;31.60;43.90
67175;DHT22;54110;45.778;4.826;2022-07-22T10:25:17;31.70;43.90
67175;DHT22;54110;45.778;4.826;2022-07-22T10:27:45;31.60;44.00
67175;DHT22;54110;45.778;4.826;2022-07-22T10:30:13;31.60;44.00
67175;DHT22;54110;45.778;4.826;2022-07-22T10:32:39;31.60;44.00
67175;DHT22;54110;45.778;4.826;2022-07-22T10:35:24;31.60;44.00
67175;DHT22;54110;45.778;4.826;2022-07-22T10:37:53;31.70;43.90
67175;DHT22;54110;45.778;4.826;2022-07-22T10:40:21;31.60;44.00
67175;DHT22;54110;45.778;4.826;2022-07-22T10:43:09;31.60;44.00
67175;DHT22;54110;45.778;4.826;2022-07-22T10:45:38;31.60;43.90
67175;DHT22;54110;45.778;4.826;2022-07-22T10:48:06;31.50;43.90
67175;DHT22;54110;45.778;4.826;2022-07-22T10:50:39;31.60;44.00
67175;DHT22;54110;45.778;4.826;2022-07-22T10:53:07;31.60;44.00
67175;DHT22;54110;45.778;4.826;2022-07-22T10:55:33;31.60;44.00
67175;DHT22;54110;45.778;4.826;2022-07-22T10:57:59;31.60;44.00
67175;DHT22;54110;45.778;4.826;2022-07-22T11:00:27;31.60;44.00
67175;DHT22;54110;45.778;4.826;2022-07-22T11:02:52;31.60;44.00
67175;DHT22;54110;45.778;4.826;2022-07-22T11:05:25;31.70;44.00
67175;DHT22;54110;45.778;4.826;2022-07-22T11:07:50;31.70;44.00
67175;DHT22;54110;45.778;4.826;2022-07-22T11:10:18;31.60;44.00
67175;DHT22;54110;45.778;4.826;2022-07-22T11:12:45;31.60;44.00
67175;DHT22;54110;45.778;4.826;2022-07-22T11:15:14;31.60;44.00
67175;DHT22;54110;45.778;4.826;2022-07-22T11:17:42;31.60;44.00
67175;DHT22;54110;45.778;4.826;2022-07-22T11:20:10;31.60;44.00
67175;DHT22;54110;45.778;4.826;2022-07-22T11:22:37;31.60;44.00
67175;DHT22;54110;45.778;4.826;2022-07-22T11:25:06;31.60;44.00
67175;DHT22;54110;45.778;4.826;2022-07-22T11:27:32;31.60;44.00
67175;DHT22;54110;45.778;4.826;2022-07-22T11:29:58;31.60;44.00
67175;DHT22;54110;45.778;4.826;2022-07-22T11:32:25;31.60;44.00
67175;DHT22;54110;45.778;4.826;2022-07-22T11:34:52;31.60;44.60
67175;DHT22;54110;45.778;4.826;2022-07-22T11:37:20;31.60;44.00
67175;DHT22;54110;45.778;4.826;2022-07-22T11:39:46;31.60;44.00
67175;DHT22;54110;45.778;4.826;2022-07-22T11:42:12;31.70;44.00
67175;DHT22;54110;45.778;4.826;2022-07-22T11:44:39;31.60;44.00
67175;DHT22;54110;45.778;4.826;2022-07-22T11:47:06;31.60;44.00
67175;DHT22;54110;45.778;4.826;2022-07-22T11:49:35;31.60;44.00
67175;DHT22;54110;45.778;4.826;2022-07-22T11:52:04;31.60;44.00
67175;DHT22;54110;45.778;4.826;2022-07-22T11:54:30;31.70;44.10
67175;DHT22;54110;45.778;4.826;2022-07-22T11:56:56;31.70;44.20
67175;DHT22;54110;45.778;4.826;2022-07-22T11:59:22;31.70;44.20
67175;DHT22;54110;45.778;4.826;2022-07-22T12:01:48;31.60;44.10
67175;DHT22;54110;45.778;4.826;2022-07-22T12:04:17;31.70;44.20
67175;DHT22;54110;45.778;4.826;2022-07-22T12:06:44;31.60;44.10
67175;DHT22;54110;45.778;4.826;2022-07-22T12:09:13;31.60;44.10
67175;DHT22;54110;45.778;4.826;2022-07-22T12:11:41;31.60;44.10
67175;DHT22;54110;45.778;4.826;2022-07-22T12:14:09;31.60;44.10
67175;DHT22;54110;45.778;4.826;2022-07-22T12:16:36;31.60;44.10
67175;DHT22;54110;45.778;4.826;2022-07-22T12:19:04;31.60;44.20
67175;DHT22;54110;45.778;4.826;2022-07-22T12:21:32;31.60;44.20
67175;DHT22;54110;45.778;4.826;2022-07-22T12:24:01;31.60;44.10
67175;DHT22;54110;45.778;4.826;2022-07-22T12:26:43;31.60;44.10
67175;DHT22;54110;45.778;4.826;2022-07-22T12:29:16;31.70;44.00
67175;DHT22;54110;45.778;4.826;2022-07-22T12:31:43;31.70;44.30
67175;DHT22;54110;45.778;4.826;2022-07-22T12:34:09;31.60;44.20
67175;DHT22;54110;45.778;4.826;2022-07-22T12:36:35;31.60;44.20
67175;DHT22;54110;45.778;4.826;2022-07-22T12:39:11;31.60;44.20
67175;DHT22;54110;45.778;4.826;2022-07-22T12:41:47;31.70;44.20
67175;DHT22;54110;45.778;4.826;2022-07-22T12:44:16;31.70;44.30
67175;DHT22;54110;45.778;4.826;2022-07-22T12:46:44;31.60;44.20
67175;DHT22;54110;45.778;4.826;2022-07-22T12:49:11;31.60;44.20
67175;DHT22;54110;45.778;4.826;2022-07-22T12:51:36;31.60;44.20
67175;DHT22;54110;45.778;4.826;2022-07-22T12:54:02;31.60;44.20
67175;DHT22;54110;45.778;4.826;2022-07-22T12:56:28;31.70;44.30
67175;DHT22;54110;45.778;4.826;2022-07-22T12:58:55;31.60;44.20
67175;DHT22;54110;45.778;4.826;2022-07-22T13:01:21;31.60;44.20
67175;DHT22;54110;45.778;4.826;2022-07-22T13:03:46;31.60;44.20
67175;DHT22;54110;45.778;4.826;2022-07-22T13:06:12;31.60;44.20
67175;DHT22;54110;45.778;4.826;2022-07-22T13:08:39;31.60;44.20
67175;DHT22;54110;45.778;4.826;2022-07-22T13:11:04;31.70;44.30
67175;DHT22;54110;45.778;4.826;2022-07-22T13:13:30;31.60;44.20
67175;DHT22;54110;45.778;4.826;2022-07-22T13:15:57;31.70;44.30
67175;DHT22;54110;45.778;4.826;2022-07-22T13:18:23;31.60;44.20
67175;DHT22;54110;45.778;4.826;2022-07-22T13:20:49;31.70;44.30
67175;DHT22;54110;45.778;4.826;2022-07-22T13:23:14;31.60;44.20
67175;DHT22;54110;45.778;4.826;2022-07-22T13:25:40;31.70;44.20
67175;DHT22;54110;45.778;4.826;2022-07-22T13:28:06;31.60;44.20
67175;DHT22;54110;45.778;4.826;2022-07-22T13:30:32;31.70;44.20
67175;DHT22;54110;45.778;4.826;2022-07-22T13:32:59;31.60;44.20
67175;DHT22;54110;45.778;4.826;2022-07-22T13:35:25;31.70;44.20
67175;DHT22;54110;45.778;4.826;2022-07-22T13:37:50;31.70;44.20
67175;DHT22;54110;45.778;4.826;2022-07-22T13:40:17;31.60;44.20
67175;DHT22;54110;45.778;4.826;2022-07-22T13:42:42;31.60;44.10
67175;DHT22;54110;45.778;4.826;2022-07-22T13:45:09;31.60;44.10
67175;DHT22;54110;45.778;4.826;2022-07-22T13:47:35;31.60;44.10
67175;DHT22;54110;45.778;4.826;2022-07-22T13:50:03;31.60;44.10
67175;DHT22;54110;45.778;4.826;2022-07-22T13:52:29;31.60;44.10
67175;DHT22;54110;45.778;4.826;2022-07-22T13:54:54;31.70;44.20
67175;DHT22;54110;45.778;4.826;2022-07-22T13:57:20;31.60;44.10
67175;DHT22;54110;45.778;4.826;2022-07-22T13:59:46;31.60;44.10
67175;DHT22;54110;45.778;4.826;2022-07-22T14:02:12;31.60;44.10
67175;DHT22;54110;45.778;4.826;2022-07-22T14:04:38;31.60;44.10
67175;DHT22;54110;45.778;4.826;2022-07-22T14:07:05;31.60;44.10
67175;DHT22;54110;45.778;4.826;2022-07-22T14:09:30;31.60;44.00
67175;DHT22;54110;45.778;4.826;2022-07-22T14:11:56;31.60;44.10
67175;DHT22;54110;45.778;4.826;2022-07-22T14:14:22;31.60;44.10
67175;DHT22;54110;45.778;4.826;2022-07-22T14:16:48;31.60;44.10
67175;DHT22;54110;45.778;4.826;2022-07-22T14:19:16;31.60;44.10
67175;DHT22;54110;45.778;4.826;2022-07-22T14:21:44;31.70;44.10
67175;DHT22;54110;45.778;4.826;2022-07-22T14:24:12;31.60;44.10
67175;DHT22;54110;45.778;4.826;2022-07-22T14:26:38;31.60;44.00
67175;DHT22;54110;45.778;4.826;2022-07-22T14:29:05;31.60;44.10
67175;DHT22;54110;45.778;4.826;2022-07-22T14:31:31;31.60;44.00
67175;DHT22;54110;45.778;4.826;2022-07-22T14:33:57;31.70;44.10
67175;DHT22;54110;45.778;4.826;2022-07-22T14:36:23;31.70;44.10
67175;DHT22;54110;45.778;4.826;2022-07-22T14:38:48;31.70;44.00
67175;DHT22;54110;45.778;4.826;2022-07-22T14:41:15;31.60;44.00
67175;DHT22;54110;45.778;4.826;2022-07-22T14:43:41;31.60;44.00
67175;DHT22;54110;45.778;4.826;2022-07-22T14:46:07;31.70;44.00
67175;DHT22;54110;45.778;4.826;2022-07-22T14:48:33;31.60;44.00
67175;DHT22;54110;45.778;4.826;2022-07-22T14:50:59;31.60;44.00
67175;DHT22;54110;45.778;4.826;2022-07-22T14:53:25;31.70;44.60
67175;DHT22;54110;45.778;4.826;2022-07-22T14:55:50;31.70;44.00
67175;DHT22;54110;45.778;4.826;2022-07-22T14:58:17;31.70;44.00
67175;DHT22;54110;45.778;4.826;2022-07-22T15:00:43;31.70;44.00
67175;DHT22;54110;45.778;4.826;2022-07-22T15:03:09;31.60;44.00
67175;DHT22;54110;45.778;4.826;2022-07-22T15:05:35;31.70;44.00
67175;DHT22;54110;45.778;4.826;2022-07-22T15:08:00;31.60;44.00
67175;DHT22;54110;45.778;4.826;2022-07-22T15:10:26;31.60;44.00
67175;DHT22;54110;45.778;4.826;2022-07-22T15:12:52;31.60;44.00
67175;DHT22;54110;45.778;4.826;2022-07-22T15:15:19;31.60;44.00
67175;DHT22;54110;45.778;4.826;2022-07-22T15:17:45;31.60;44.00
67175;DHT22;54110;45.778;4.826;2022-07-22T15:20:10;31.60;44.00
67175;DHT22;54110;45.778;4.826;2022-07-22T15:22:36;31.60;44.00
67175;DHT22;54110;45.778;4.826;2022-07-22T15:25:02;31.60;44.50